Time;durP1;ratioP1;P1;durP2;ratioP2;P2;SDS_P1;SDS_P2;PMS_P1;PMS_P2;Temp;Humidity;BMP_temperature;BMP_pressure;BME280_temperature;BME280_humidity;BME280_pressure;Samples;Min_cycle;Max_cycle;Signal;HPM_P1;HPM_P2
2023/02/20 00:02:11;;;;;;;6.95;6.35;;;;;;;4.93;100.00;99249.66;15269751;19;20053;-50
2023/02/20 00:07:38;;;;;;;6.05;5.45;;;;;;;5.07;100.00;99243.34;15265976;19;20985;-51
2023/02/20 00:13:03;;;;;;;6.22;5.63;;;;;;;5.08;100.00;99244.22;15267454;19;20032;-54
2023/02/20 00:18:27;;;;;;;8.75;6.10;;;;;;;5.09;100.00;99236.09;15263051;19;20018;-52
2023/02/20 00:23:55;;;;;;;7.50;5.82;;;;;;;5.18;100.00;99253.31;15282573;19;20018;-52
2023/02/20 00:29:22;;;;;;;7.22;5.80;;;;;;;5.19;100.00;99240.81;15284235;19;20017;-49
2023/02/20 00:34:47;;;;;;;7.93;6.50;;;;;;;5.17;100.00;99229.38;15280989;19;20014;-51
2023/02/20 00:40:16;;;;;;;10.27;6.95;;;;;;;5.27;100.00;99237.59;15281801;19;20026;-51
2023/02/20 00:45:40;;;;;;;7.78;6.97;;;;;;;5.28;100.00;99236.63;15277878;19;20018;-50
2023/02/20 00:51:06;;;;;;;8.88;6.68;;;;;;;5.38;100.00;99232.34;15277907;19;20487;-52
2023/02/20 00:56:41;;;;;;;8.75;6.75;;;;;;;5.40;100.00;99236.66;15278998;19;20030;-53
2023/02/20 01:02:08;;;;;;;8.63;6.93;;;;;;;5.35;100.00;99229.91;15281958;19;20047;-53
2023/02/20 01:07:32;;;;;;;8.70;7.38;;;;;;;5.38;100.00;99232.34;15271663;19;20094;-52
2023/02/20 01:13:00;;;;;;;8.27;6.75;;;;;;;5.37;100.00;99231.50;15281392;19;20029;-54
2023/02/20 01:18:18;;;;;;;6.88;6.18;;;;;;;5.44;100.00;99226.59;15278554;19;20010;-51
2023/02/20 01:23:42;;;;;;;5.22;4.72;;;;;;;5.48;100.00;99209.34;15272869;19;20471;-50
2023/02/20 01:29:10;;;;;;;3.88;3.58;;;;;;;5.48;100.00;99174.59;15281366;19;20047;-54
2023/02/20 01:34:35;;;;;;;3.53;3.22;;;;;;;5.58;100.00;99128.53;15277380;19;20015;-55
2023/02/20 01:40:06;;;;;;;3.50;3.20;;;;;;;5.59;100.00;99114.16;15273829;19;20286;-54
2023/02/20 01:45:36;;;;;;;3.92;3.63;;;;;;;5.61;100.00;99096.19;15276920;19;20014;-54
2023/02/20 01:51:06;;;;;;;3.50;3.23;;;;;;;5.62;100.00;99085.41;15273971;19;20735;-53
2023/02/20 01:56:31;;;;;;;3.60;3.30;;;;;;;5.62;100.00;99071.19;15268218;19;20018;-50
2023/02/20 02:01:58;;;;;;;3.58;3.28;;;;;;;5.62;100.00;99064.03;15276513;19;20424;-51
2023/02/20 02:07:24;;;;;;;3.97;3.67;;;;;;;5.62;100.00;99056.00;15272115;19;20010;-50
2023/02/20 02:12:50;;;;;;;5.78;3.95;;;;;;;5.60;100.00;99043.69;15276884;19;20018;-50
2023/02/20 02:18:40;;;;;;;4.50;4.05;;;;;;;5.64;100.00;99050.53;15273776;19;20049;-50
2023/02/20 02:24:38;;;;;;;5.50;4.15;;;;;;;5.53;100.00;99037.97;15275871;19;20083;-52
2023/02/20 02:30:37;;;;;;;5.50;4.80;;;;;;;5.44;100.00;99044.88;15272862;19;20014;-52
2023/02/20 02:36:35;;;;;;;4.40;4.00;;;;;;;5.38;100.00;99046.16;15271503;19;20061;-51
2023/02/20 02:42:07;;;;;;;4.75;4.00;;;;;;;5.43;100.00;99039.63;15273126;19;20022;-51
2023/02/20 02:47:43;;;;;;;4.40;4.00;;;;;;;5.44;100.00;99017.28;15268015;19;20082;-51
2023/02/20 02:53:11;;;;;;;5.97;4.50;;;;;;;5.44;100.00;99011.94;15273474;19;20024;-53
2023/02/20 02:58:43;;;;;;;5.45;4.15;;;;;;;5.43;100.00;99021.78;15265190;19;21003;-53
2023/02/20 03:04:09;;;;;;;5.17;4.37;;;;;;;5.36;100.00;98994.66;15272431;19;20324;-57
2023/02/20 03:09:38;;;;;;;5.55;4.78;;;;;;;5.29;100.00;99004.09;15272764;19;20014;-55
2023/02/20 03:20:50;;;;;;;5.13;4.63;;;;;;;5.22;100.00;99008.16;15272252;19;20026;-56
2023/02/20 03:26:21;;;;;;;4.90;4.40;;;;;;;5.22;100.00;98998.34;15267023;19;20028;-54
2023/02/20 03:43:27;;;;;;;4.25;3.85;;;;;;;5.25;100.00;98971.38;15259343;19;20035;-53
2023/02/20 03:48:57;;;;;;;3.03;2.83;;;;;;;5.24;100.00;98964.34;15261539;19;20069;-56
2023/02/20 03:54:25;;;;;;;3.35;3.05;;;;;;;5.30;100.00;98954.19;15264133;19;20019;-54
2023/02/20 03:59:56;;;;;;;3.28;2.97;;;;;;;5.27;100.00;98962.41;15264431;19;20839;-56
2023/02/20 04:05:36;;;;;;;3.58;2.90;;;;;;;5.31;100.00;98978.09;15258128;19;20434;-55
2023/02/20 04:11:10;;;;;;;4.25;3.00;;;;;;;5.24;100.00;98972.34;15263007;19;20082;-52
2023/02/20 04:16:39;;;;;;;3.05;2.85;;;;;;;5.25;100.00;98966.06;15263480;19;20022;-56
2023/02/20 04:22:06;;;;;;;3.70;3.40;;;;;;;5.22;100.00;98979.66;15260700;19;20359;-53
2023/02/20 04:27:24;;;;;;;3.40;3.10;;;;;;;5.20;100.00;98975.38;15259642;19;20019;-55
2023/02/20 04:32:52;;;;;;;3.15;2.85;;;;;;;5.10;100.00;98985.91;15261648;19;20039;-54
2023/02/20 04:38:17;;;;;;;3.10;2.80;;;;;;;5.14;100.00;98984.69;15260804;19;20049;-57
2023/02/20 04:43:43;;;;;;;3.08;2.67;;;;;;;5.20;100.00;98983.38;15263122;19;20147;-55
2023/02/20 04:49:10;;;;;;;2.42;2.22;;;;;;;5.20;100.00;98994.06;15270100;19;20758;-55
2023/02/20 04:54:38;;;;;;;2.47;2.28;;;;;;;5.20;100.00;98988.72;15262353;19;20154;-51
2023/02/20 05:00:04;;;;;;;2.25;2.05;;;;;;;5.20;100.00;98976.25;15260802;19;20025;-55
2023/02/20 05:05:33;;;;;;;2.58;2.25;;;;;;;5.19;100.00;98971.88;15263619;19;20029;-52
2023/02/20 05:10:58;;;;;;;2.30;2.10;;;;;;;5.13;100.00;98940.25;15276478;19;20383;-53
2023/02/20 05:16:22;;;;;;;2.45;2.25;;;;;;;5.09;100.00;98912.91;15276921;19;20019;-57
2023/02/20 05:27:28;;;;;;;2.40;2.20;;;;;;;5.02;100.00;98910.81;15273054;19;20014;-51
2023/02/20 05:32:53;;;;;;;2.45;2.25;;;;;;;5.01;100.00;98903.75;15274062;19;20475;-53
2023/02/20 05:38:25;;;;;;;2.33;2.10;;;;;;;5.00;100.00;98904.75;15269398;19;20441;-52
2023/02/20 05:43:50;;;;;;;2.30;2.10;;;;;;;5.04;100.00;98898.19;15264168;19;20787;-54
2023/02/20 05:49:14;;;;;;;2.63;2.33;;;;;;;5.03;100.00;98901.84;15269651;19;20014;-55
2023/02/20 05:54:42;;;;;;;2.42;2.22;;;;;;;4.98;100.00;98896.84;15277165;19;20019;-56
2023/02/20 06:00:07;;;;;;;2.47;2.25;;;;;;;4.99;100.00;98893.22;15276988;19;20022;-52
2023/02/20 06:05:33;;;;;;;2.33;2.13;;;;;;;4.97;100.00;98904.97;15276830;19;20023;-54
2023/02/20 06:11:00;;;;;;;2.20;2.10;;;;;;;5.00;100.00;98910.09;15276495;19;20021;-55
2023/02/20 06:16:26;;;;;;;2.50;2.30;;;;;;;5.04;100.00;98863.50;15269277;19;20345;-51
2023/02/20 06:21:53;;;;;;;3.35;2.28;;;;;;;5.06;100.00;98865.06;15272627;19;20029;-53
2023/02/20 06:27:20;;;;;;;2.50;2.30;;;;;;;5.04;100.00;98852.81;15270917;19;20777;-54
2023/02/20 06:32:45;;;;;;;2.80;2.50;;;;;;;5.09;100.00;98845.31;15276010;19;20023;-52
2023/02/20 06:38:10;;;;;;;3.10;2.80;;;;;;;5.07;100.00;98865.94;15273477;19;20006;-54
2023/02/20 06:43:37;;;;;;;3.40;3.10;;;;;;;5.05;100.00;98867.88;15275927;19;20773;-50
2023/02/20 06:49:02;;;;;;;3.50;3.08;;;;;;;5.03;100.00;98869.78;15268973;19;20007;-55
2023/02/20 06:54:26;;;;;;;3.13;2.92;;;;;;;5.03;100.00;98851.09;15271667;19;20804;-54
2023/02/20 06:59:53;;;;;;;3.53;3.22;;;;;;;5.00;100.00;98836.16;15270576;19;20019;-55
2023/02/20 07:05:19;;;;;;;3.20;3.00;;;;;;;5.07;100.00;98844.56;15272761;19;20009;-55
2023/02/20 07:10:44;;;;;;;3.20;3.00;;;;;;;5.10;100.00;98844.34;15272231;19;20025;-54
2023/02/20 07:16:11;;;;;;;3.05;2.85;;;;;;;5.12;100.00;98837.03;15270152;19;20014;-52
2023/02/20 07:21:29;;;;;;;3.85;3.30;;;;;;;5.15;100.00;98836.81;15263229;19;20037;-53
2023/02/20 07:26:54;;;;;;;4.90;3.40;;;;;;;5.21;100.00;98831.03;15268002;19;20014;-54
2023/02/20 07:32:22;;;;;;;3.70;3.40;;;;;;;5.26;100.00;98811.97;15274479;19;20014;-54
2023/02/20 07:37:47;;;;;;;3.78;3.20;;;;;;;5.32;100.00;98830.19;15271526;19;20518;-52
2023/02/20 07:43:11;;;;;;;3.55;3.25;;;;;;;5.44;100.00;98825.72;15270536;19;20011;-52
2023/02/20 07:48:38;;;;;;;3.97;3.15;;;;;;;5.52;100.00;98820.63;15270851;19;20432;-54
2023/02/20 07:54:04;;;;;;;3.83;3.15;;;;;;;5.68;100.00;98800.75;15265172;19;20368;-55
2023/02/20 07:59:35;;;;;;;3.22;2.92;;;;;;;5.80;100.00;98804.25;15267099;19;20015;-57
2023/02/20 08:05:02;;;;;;;2.70;2.50;;;;;;;5.94;100.00;98803.19;15269641;19;20019;-54
2023/02/20 08:10:31;;;;;;;2.65;2.35;;;;;;;6.07;100.00;98782.50;15269765;19;20018;-54
2023/02/20 08:15:56;;;;;;;2.40;2.20;;;;;;;6.22;100.00;98783.09;15267866;19;20032;-52
2023/02/20 08:21:23;;;;;;;2.13;1.77;;;;;;;6.47;100.00;98760.53;15267620;19;20033;-57
2023/02/20 08:26:49;;;;;;;1.55;1.30;;;;;;;6.70;100.00;98747.06;15268037;19;20025;-57
2023/02/20 08:32:15;;;;;;;2.47;1.50;;;;;;;6.92;100.00;98722.00;15268592;19;20014;-55
2023/02/20 08:37:42;;;;;;;1.65;1.30;;;;;;;7.02;100.00;98727.41;15265723;19;20022;-55
2023/02/20 08:43:07;;;;;;;2.47;1.10;;;;;;;7.15;100.00;98726.34;15276306;19;20627;-53
2023/02/20 08:48:32;;;;;;;1.55;1.20;;;;;;;7.14;100.00;98711.25;15285046;19;20017;-54
2023/02/20 08:53:59;;;;;;;1.55;1.10;;;;;;;7.20;100.00;98703.53;15272861;19;20029;-57
2023/02/20 08:59:30;;;;;;;1.60;1.20;;;;;;;7.22;100.00;98720.34;15273920;19;20010;-54
2023/02/20 09:04:55;;;;;;;1.40;1.10;;;;;;;7.23;100.00;98710.47;15280314;19;20014;-52
2023/02/20 09:10:23;;;;;;;1.65;1.40;;;;;;;7.22;100.00;98709.63;15277773;19;20002;-51
2023/02/20 09:15:48;;;;;;;1.40;1.27;;;;;;;7.20;100.00;98714.25;15270916;19;20018;-55
2023/02/20 09:21:16;;;;;;;3.45;1.45;;;;;;;7.22;100.00;98711.47;15269179;19;20475;-53
2023/02/20 09:26:43;;;;;;;1.58;1.40;;;;;;;7.21;100.00;98694.50;15265654;19;20495;-54
2023/02/20 09:32:08;;;;;;;2.50;1.60;;;;;;;7.24;100.00;98701.44;15279574;19;20369;-54
2023/02/20 09:37:33;;;;;;;1.80;1.20;;;;;;;7.29;100.00;98712.63;15272804;19;20483;-53
2023/02/20 09:43:14;;;;;;;2.53;1.30;;;;;;;7.35;100.00;98720.09;15278754;19;20361;-52
2023/02/20 09:48:54;;;;;;;1.90;1.10;;;;;;;7.41;100.00;98721.41;15278172;19;20456;-51
2023/02/20 09:54:23;;;;;;;3.90;1.20;;;;;;;7.56;100.00;98720.06;15276170;19;20575;-53
2023/02/20 10:00:02;;;;;;;2.53;1.17;;;;;;;7.85;100.00;98721.16;15276711;19;20026;-50
2023/02/20 10:05:30;;;;;;;1.92;1.10;;;;;;;7.99;100.00;98703.84;15278678;19;20026;-53
2023/02/20 10:10:57;;;;;;;0.95;0.90;;;;;;;8.02;100.00;98696.38;15276675;19;20435;-51
2023/02/20 10:16:33;;;;;;;1.30;0.85;;;;;;;8.08;100.00;98691.41;15252906;19;20029;-54
2023/02/20 10:22:11;;;;;;;2.17;0.90;;;;;;;8.22;100.00;98687.50;15277191;19;20266;-55
2023/02/20 10:27:48;;;;;;;1.52;1.00;;;;;;;8.32;100.00;98662.34;15275276;19;20781;-53
2023/02/20 10:33:29;;;;;;;1.80;1.00;;;;;;;8.46;100.00;98670.97;15272938;19;20007;-55
2023/02/20 10:39:02;;;;;;;1.70;0.90;;;;;;;8.55;100.00;98672.00;15277204;19;20019;-53
2023/02/20 10:44:33;;;;;;;1.02;0.80;;;;;;;8.73;100.00;98645.25;15275381;19;20018;-51
2023/02/20 10:50:17;;;;;;;6.65;0.70;;;;;;;8.89;100.00;98629.38;15276314;19;20022;-51
2023/02/20 10:55:47;;;;;;;1.25;0.70;;;;;;;9.08;100.00;98624.94;15274046;19;20117;-54
2023/02/20 11:01:15;;;;;;;1.77;1.00;;;;;;;9.21;100.00;98603.97;15274892;19;20014;-54
2023/02/20 11:06:48;;;;;;;1.95;0.45;;;;;;;9.44;100.00;98602.72;15263643;19;20029;-55
2023/02/20 11:12:24;;;;;;;1.15;0.60;;;;;;;9.60;100.00;98577.84;15269001;19;20006;-51
2023/02/20 11:17:51;;;;;;;1.60;0.60;;;;;;;9.76;100.00;98574.50;15246813;19;20015;-49
2023/02/20 11:23:45;;;;;;;1.63;0.60;;;;;;;9.92;100.00;98579.19;15274657;19;20031;-51
2023/02/20 11:29:22;;;;;;;2.90;0.55;;;;;;;10.11;100.00;98588.97;15272636;19;20103;-52
2023/02/20 11:34:47;;;;;;;1.65;0.60;;;;;;;10.37;100.00;98577.38;15271086;19;20022;-56
2023/02/20 11:40:24;;;;;;;0.68;0.40;;;;;;;10.54;100.00;98543.38;15266070;19;20491;-54
2023/02/20 11:45:53;;;;;;;0.98;0.50;;;;;;;10.69;100.00;98533.72;15263966;19;20486;-55
2023/02/20 11:51:39;;;;;;;1.15;0.63;;;;;;;10.94;100.00;98531.16;15271247;19;20515;-52
2023/02/20 11:57:20;;;;;;;1.02;0.55;;;;;;;11.12;100.00;98522.13;15264962;19;20538;-53
2023/02/20 12:02:44;;;;;;;2.57;0.50;;;;;;;11.21;100.00;98521.16;15267538;19;20551;-51
2023/02/20 12:08:30;;;;;;;1.10;0.50;;;;;;;11.37;100.00;98540.06;15263550;19;20733;-52
2023/02/20 12:13:59;;;;;;;0.98;0.50;;;;;;;11.19;100.00;98525.88;15267873;19;20030;-51
2023/02/20 12:19:40;;;;;;;1.35;0.50;;;;;;;11.24;100.00;98497.41;15284325;19;20024;-58
2023/02/20 12:25:24;;;;;;;1.30;0.50;;;;;;;11.22;100.00;98493.19;15281513;19;20502;-56
2023/02/20 12:31:21;;;;;;;1.67;0.68;;;;;;;11.33;100.00;98492.03;15285890;19;20023;-57
2023/02/20 12:36:52;;;;;;;1.00;0.50;;;;;;;11.35;100.00;98465.75;15277319;19;20014;-58
2023/02/20 12:42:39;;;;;;;1.10;0.50;;;;;;;11.25;100.00;98469.44;15273557;19;20006;-56
2023/02/20 12:48:18;;;;;;;0.63;0.40;;;;;;;11.37;100.00;98456.47;15285416;19;20014;-55
2023/02/20 12:54:02;;;;;;;1.23;0.57;;;;;;;11.50;100.00;98444.34;15283572;19;20021;-52
2023/02/20 12:59:39;;;;;;;0.93;0.40;;;;;;;11.61;100.00;98429.69;15277571;19;20545;-57
2023/02/20 13:05:10;;;;;;;1.25;0.50;;;;;;;11.57;100.00;98423.78;15278177;19;20043;-54
2023/02/20 13:10:38;;;;;;;1.20;0.52;;;;;;;11.47;100.00;98412.28;15285429;19;20017;-59
2023/02/20 13:16:08;;;;;;;1.27;0.60;;;;;;;11.44;100.00;98423.44;15274480;19;20026;-53
2023/02/20 13:21:38;;;;;;;0.93;0.50;;;;;;;11.52;100.00;98407.25;15280547;19;20029;-51
2023/02/20 13:27:05;;;;;;;1.27;0.50;;;;;;;11.64;100.00;98397.81;15272570;19;20025;-54
2023/02/20 13:32:33;;;;;;;1.40;0.47;;;;;;;11.69;100.00;98379.28;15280181;19;20059;-52
2023/02/20 13:38:12;;;;;;;1.23;0.60;;;;;;;11.69;100.00;98378.41;15276116;19;20011;-52
2023/02/20 13:43:39;;;;;;;0.88;0.52;;;;;;;11.74;100.00;98377.91;15276624;19;20113;-55
2023/02/20 13:49:09;;;;;;;1.00;0.40;;;;;;;11.69;100.00;98379.28;15278247;19;20022;-58
2023/02/20 13:54:41;;;;;;;0.77;0.47;;;;;;;11.75;100.00;98374.19;15275770;19;20367;-55
2023/02/20 14:00:28;;;;;;;0.93;0.43;;;;;;;11.71;100.00;98381.78;15272364;19;20025;-48
2023/02/20 14:06:09;;;;;;;0.68;0.40;;;;;;;11.86;100.00;98379.25;15277095;19;20610;-50
2023/02/20 14:11:42;;;;;;;0.70;0.43;;;;;;;12.11;100.00;98388.16;15277162;19;20486;-52
2023/02/20 14:17:10;;;;;;;0.82;0.50;;;;;;;12.33;100.00;98399.28;15268025;19;20778;-51
2023/02/20 14:22:38;;;;;;;1.63;0.50;;;;;;;12.36;100.00;98387.28;15267253;19;20077;-50
2023/02/20 14:28:15;;;;;;;0.40;0.40;;;;;;;12.28;100.00;98397.09;15270162;19;20019;-51
2023/02/20 14:33:41;;;;;;;0.90;0.50;;;;;;;12.36;100.00;98390.81;15275853;19;20023;-54
2023/02/20 14:39:34;;;;;;;0.80;0.40;;;;;;;12.37;100.00;98389.78;15270200;19;21688;-55
2023/02/20 14:45:07;;;;;;;2.05;0.50;;;;;;;12.37;100.00;98395.19;15272331;19;20022;-51
2023/02/20 14:50:34;;;;;;;0.50;0.30;;;;;;;12.44;100.00;98398.03;15270838;19;20010;-54
2023/02/20 14:55:58;;;;;;;1.15;0.50;;;;;;;12.58;100.00;98394.63;15264073;19;20047;-54
2023/02/20 15:01:38;;;;;;;1.27;0.60;;;;;;;12.49;100.00;98368.66;15272052;19;20014;-51
2023/02/20 15:07:13;;;;;;;0.63;0.40;;;;;;;12.43;100.00;98380.16;15264645;19;20022;-49
2023/02/20 15:12:45;;;;;;;1.45;0.70;;;;;;;12.49;100.00;98387.56;15272013;19;20352;-52
2023/02/20 15:18:21;;;;;;;1.48;0.50;;;;;;;12.52;100.00;98362.06;15273361;19;20022;-50
2023/02/20 15:23:47;;;;;;;1.00;0.60;;;;;;;12.54;100.00;98373.53;14749655;19;10001650;-55
2023/02/20 15:29:21;;;;;;;2.28;0.73;;;;;;;12.56;100.00;98369.63;15271799;19;20031;-57
2023/02/20 15:34:53;;;;;;;2.20;0.68;;;;;;;12.60;100.00;98372.81;15270045;19;20021;-53
2023/02/20 15:40:27;;;;;;;0.68;0.60;;;;;;;12.60;100.00;98365.56;15269417;19;20017;-53
2023/02/20 15:45:52;;;;;;;2.25;0.60;;;;;;;12.55;100.00;98377.91;15266086;19;20025;-55
2023/02/20 15:51:25;;;;;;;0.77;0.47;;;;;;;12.42;100.00;98414.44;15268781;19;20014;-56
2023/02/20 15:56:50;;;;;;;1.23;0.70;;;;;;;12.27;100.00;98383.75;15260020;19;20018;-56
2023/02/20 16:02:23;;;;;;;2.38;0.70;;;;;;;12.01;100.00;98401.88;15271946;19;20019;-56
2023/02/20 16:07:50;;;;;;;1.17;0.77;;;;;;;11.80;100.00;98393.44;15261947;19;20505;-55
2023/02/20 16:13:28;;;;;;;1.50;0.80;;;;;;;11.62;100.00;98394.44;15266505;19;20014;-54
2023/02/20 16:18:53;;;;;;;1.67;0.90;;;;;;;11.54;100.00;98380.94;15264592;19;20018;-54
2023/02/20 16:24:20;;;;;;;1.35;0.98;;;;;;;11.45;100.00;98408.94;15264386;19;20011;-54
2023/02/20 16:29:45;;;;;;;2.35;0.90;;;;;;;11.45;100.00;98425.13;15258749;19;20626;-55
2023/02/20 16:35:09;;;;;;;1.20;0.65;;;;;;;11.48;100.00;98435.56;15272932;19;20029;-54
2023/02/20 16:40:38;;;;;;;3.03;1.00;;;;;;;11.40;100.00;98437.25;15280497;19;20073;-56
2023/02/20 16:46:02;;;;;;;2.13;0.90;;;;;;;11.33;100.00;98436.25;15267065;19;20047;-55
2023/02/20 16:51:28;;;;;;;1.58;0.93;;;;;;;11.28;100.00;98425.09;15267852;19;20025;-55
2023/02/20 16:56:55;;;;;;;1.42;0.82;;;;;;;11.26;100.00;98443.28;15252788;19;20015;-53
2023/02/20 17:02:23;;;;;;;1.52;0.85;;;;;;;11.20;100.00;98430.47;15258999;19;20018;-52
2023/02/20 17:07:47;;;;;;;2.65;0.95;;;;;;;11.16;100.00;98434.50;15274623;19;20021;-50
2023/02/20 17:13:15;;;;;;;1.70;0.90;;;;;;;11.07;100.00;98447.13;15281088;19;20483;-51
2023/02/20 17:18:39;;;;;;;1.13;0.90;;;;;;;11.01;100.00;98429.75;15281102;19;20021;-53
2023/02/20 17:24:04;;;;;;;2.10;0.80;;;;;;;10.94;100.00;98437.63;15273650;19;20018;-50
2023/02/20 17:29:31;;;;;;;2.50;0.90;;;;;;;10.95;100.00;98431.25;15280099;19;20019;-52
2023/02/20 17:34:56;;;;;;;1.48;0.80;;;;;;;10.87;100.00;98436.63;15272512;19;20017;-55
2023/02/20 17:40:21;;;;;;;1.88;0.90;;;;;;;10.88;100.00;98446.38;15279647;19;20081;-55
2023/02/20 17:45:49;;;;;;;1.25;0.70;;;;;;;10.82;100.00;98440.81;15277091;19;20015;-55
2023/02/20 17:51:13;;;;;;;0.90;0.70;;;;;;;10.75;100.00;98446.84;15277490;19;20017;-53
2023/02/20 17:56:41;;;;;;;1.20;0.77;;;;;;;10.78;100.00;98457.28;15271638;19;20006;-53
2023/02/20 18:02:09;;;;;;;1.35;0.80;;;;;;;10.76;100.00;98453.91;15277170;19;20026;-54
2023/02/20 18:07:34;;;;;;;3.83;0.82;;;;;;;10.76;100.00;98459.28;15271953;19;20121;-56
2023/02/20 18:13:05;;;;;;;1.63;0.80;;;;;;;10.60;100.00;98454.69;15272584;19;20022;-54
2023/02/20 18:18:33;;;;;;;2.03;0.80;;;;;;;10.67;100.00;98449.50;15274935;19;20026;-56
2023/02/20 18:23:58;;;;;;;1.10;0.77;;;;;;;10.62;100.00;98449.97;15271164;19;20018;-55
2023/02/20 18:29:24;;;;;;;1.60;0.80;;;;;;;10.61;100.00;98444.75;15278824;19;20024;-56
2023/02/20 18:34:51;;;;;;;1.58;0.80;;;;;;;10.55;100.00;98440.00;15271593;19;20018;-57
2023/02/20 18:40:18;;;;;;;1.50;0.70;;;;;;;10.45;100.00;98440.97;15275211;19;20029;-53
2023/02/20 18:45:42;;;;;;;1.15;0.70;;;;;;;10.42;100.00;98446.66;15272064;19;20018;-56
2023/02/20 18:51:11;;;;;;;1.42;0.82;;;;;;;10.39;100.00;98451.53;15277071;19;20024;-54
2023/02/20 18:56:37;;;;;;;1.88;0.82;;;;;;;10.41;100.00;98455.75;15271662;19;20472;-55
2023/02/20 19:02:04;;;;;;;2.05;1.17;;;;;;;10.38;100.00;98460.63;15275905;19;20017;-59
2023/02/20 19:07:31;;;;;;;1.27;0.80;;;;;;;10.25;100.00;98450.25;15262975;19;20424;-57
2023/02/20 19:12:57;;;;;;;1.50;1.00;;;;;;;10.25;100.00;98450.25;15265293;19;20019;-57
2023/02/20 19:18:21;;;;;;;1.48;1.10;;;;;;;10.26;100.00;98433.09;15270512;19;20486;-56
2023/02/20 19:23:49;;;;;;;1.33;0.90;;;;;;;10.15;100.00;98435.06;15268578;19;20029;-54
2023/02/20 19:29:14;;;;;;;1.10;0.80;;;;;;;10.20;100.00;98441.78;15275430;19;20013;-55
2023/02/20 19:34:39;;;;;;;1.10;1.00;;;;;;;10.10;100.00;98458.91;15271841;19;20018;-54
2023/02/20 19:40:06;;;;;;;1.35;1.15;;;;;;;10.06;100.00;98444.06;15267319;19;20019;-53
2023/02/20 19:45:31;;;;;;;2.00;1.20;;;;;;;10.20;100.00;98460.63;15266268;19;20019;-51
2023/02/20 19:50:49;;;;;;;2.13;1.40;;;;;;;10.01;100.00;98484.06;15273075;19;20014;-53
2023/02/20 19:56:17;;;;;;;3.28;1.65;;;;;;;9.98;100.00;98454.75;15270213;19;20022;-53
2023/02/20 20:01:42;;;;;;;2.92;1.70;;;;;;;9.81;100.00;98464.56;15269583;19;20020;-53
2023/02/20 20:07:08;;;;;;;3.58;1.80;;;;;;;9.77;100.00;98466.72;15266352;19;20029;-55
2023/02/20 20:12:48;;;;;;;2.80;1.60;;;;;;;9.72;100.00;98450.19;15267764;19;20029;-53
2023/02/20 20:18:14;;;;;;;2.30;1.55;;;;;;;9.63;100.00;98453.81;15272425;19;20033;-52
2023/02/20 20:23:39;;;;;;;2.13;1.60;;;;;;;9.50;100.00;98468.50;15269234;19;20026;-53
2023/02/20 20:29:06;;;;;;;3.28;1.95;;;;;;;9.40;100.00;98473.97;15269777;19;20020;-52
2023/02/20 20:34:31;;;;;;;3.25;1.80;;;;;;;9.27;100.00;98472.63;15269263;19;20019;-55
2023/02/20 20:39:56;;;;;;;3.03;2.20;;;;;;;9.20;100.00;98473.22;15286113;19;20049;-51
2023/02/20 20:45:25;;;;;;;2.60;2.20;;;;;;;9.03;100.00;98474.03;15275250;19;20104;-53
2023/02/20 20:50:50;;;;;;;3.17;2.25;;;;;;;8.96;100.00;98483.69;15285778;19;20007;-56
2023/02/20 20:56:15;;;;;;;2.50;2.10;;;;;;;8.87;100.00;98488.13;15279763;19;20034;-56
2023/02/20 21:01:43;;;;;;;3.38;2.15;;;;;;;8.84;100.00;98493.78;15286191;19;20024;-54
2023/02/20 21:07:08;;;;;;;3.53;2.30;;;;;;;8.82;100.00;98493.09;15279138;19;21368;-57
2023/02/20 21:12:32;;;;;;;3.58;2.40;;;;;;;8.77;100.00;98485.47;15285215;19;20021;-56
2023/02/20 21:18:00;;;;;;;2.30;2.10;;;;;;;8.76;100.00;98491.88;15278228;19;20014;-50
2023/02/20 21:23:24;;;;;;;2.15;1.90;;;;;;;8.80;100.00;98490.56;15289150;19;20033;-54
2023/02/20 21:28:58;;;;;;;2.38;2.03;;;;;;;8.92;100.00;98485.84;15332011;19;20018;-54
2023/02/20 21:34:26;;;;;;;4.03;1.90;;;;;;;8.85;100.00;98484.72;15281873;19;20372;-56
2023/02/20 21:39:50;;;;;;;1.98;1.50;;;;;;;8.82;100.00;98464.38;15282571;19;20019;-60
2023/02/20 21:45:15;;;;;;;1.73;1.52;;;;;;;8.78;100.00;98476.41;15289299;19;20019;-60
2023/02/20 21:50:42;;;;;;;2.55;1.52;;;;;;;8.75;100.00;98480.25;15273017;19;20364;-57
2023/02/20 21:56:07;;;;;;;1.55;1.45;;;;;;;8.72;100.00;98466.28;15275797;19;20018;-54
